createdAt,value
2019-03-09T00:00:42.894Z,95676.49
2019-03-09T00:03:10.869Z,95675.31
2019-03-09T00:05:40.760Z,95678.91
2019-03-09T00:08:08.651Z,95676.65
2019-03-09T00:10:37.527Z,95674.72
2019-03-09T00:13:05.453Z,95672.89
2019-03-09T00:15:33.351Z,95674.30
2019-03-09T00:18:01.239Z,95669.73
2019-03-09T00:20:30.121Z,95669.88
2019-03-09T00:23:14.686Z,95668.32
2019-03-09T00:25:49.986Z,95664.56
2019-03-09T00:28:23.332Z,95656.75
2019-03-09T00:30:53.987Z,95662.39
2019-03-09T00:33:21.925Z,95665.23
2019-03-09T00:35:49.867Z,95657.84
2019-03-09T00:38:17.755Z,95659.30
2019-03-09T00:40:45.645Z,95659.72
2019-03-09T00:43:14.551Z,95652.84
2019-03-09T00:45:42.814Z,95661.70
2019-03-09T00:48:10.986Z,95657.80
2019-03-09T00:50:38.919Z,95658.30
2019-03-09T00:53:06.823Z,95654.17
2019-03-09T00:55:34.732Z,95651.45
2019-03-09T00:58:02.628Z,95649.36
2019-03-09T01:00:30.513Z,95643.66
2019-03-09T01:02:58.530Z,95631.02
2019-03-09T01:05:26.441Z,95627.25
2019-03-09T01:07:54.336Z,95619.73
2019-03-09T01:10:22.216Z,95617.38
2019-03-09T01:12:50.116Z,95616.23
2019-03-09T01:15:18.006Z,95607.16
2019-03-09T01:17:45.897Z,95606.36
2019-03-09T01:20:13.804Z,95596.02
2019-03-09T01:22:41.689Z,95591.71
2019-03-09T01:25:09.600Z,95591.98
2019-03-09T01:27:37.579Z,95592.52
2019-03-09T01:30:05.458Z,95591.36
2019-03-09T01:32:33.359Z,95587.89
2019-03-09T01:35:01.251Z,95584.94
2019-03-09T01:37:29.168Z,95578.11
2019-03-09T01:39:57.063Z,95576.95
2019-03-09T01:42:24.962Z,95576.68
2019-03-09T01:44:52.863Z,95570.77
2019-03-09T01:47:20.752Z,95578.63
2019-03-09T01:49:48.655Z,95568.31
2019-03-09T01:52:16.543Z,95578.08
2019-03-09T01:54:44.473Z,95571.31
2019-03-09T01:57:12.375Z,95560.88
2019-03-09T01:59:40.277Z,95557.87
2019-03-09T02:02:08.191Z,95553.56
2019-03-09T02:04:36.076Z,95552.99
2019-03-09T02:07:03.966Z,95546.59
2019-03-09T02:09:31.865Z,95544.25
2019-03-09T02:11:59.756Z,95547.25
2019-03-09T02:14:27.669Z,95550.95
2019-03-09T02:16:56.544Z,95559.74
2019-03-09T02:19:24.435Z,95548.58
2019-03-09T02:21:52.350Z,95544.24
2019-03-09T02:24:20.285Z,95548.12
2019-03-09T02:26:48.187Z,95545.59
2019-03-09T02:29:16.093Z,95547.25
2019-03-09T02:31:43.988Z,95550.16
2019-03-09T02:34:11.868Z,95543.99
2019-03-09T02:36:39.763Z,95541.94
2019-03-09T02:39:07.652Z,95546.48
2019-03-09T02:41:35.554Z,95543.42
2019-03-09T02:44:04.389Z,95542.86
2019-03-09T02:46:32.295Z,95531.80
2019-03-09T02:49:00.239Z,95534.37
2019-03-09T02:51:28.168Z,95538.95
2019-03-09T02:53:56.978Z,95540.42
2019-03-09T02:56:24.880Z,95545.53
2019-03-09T02:58:52.776Z,95543.28
2019-03-09T03:04:18.468Z,95535.84
2019-03-09T03:06:46.360Z,95529.27
2019-03-09T03:09:14.285Z,95533.97
2019-03-09T03:11:43.181Z,95525.48
2019-03-09T03:14:11.113Z,95526.50
2019-03-09T03:16:39.020Z,95525.19
2019-03-09T03:19:07.826Z,95515.99
2019-03-09T03:21:35.736Z,95518.71
2019-03-09T03:24:03.621Z,95510.88
2019-03-09T03:26:31.553Z,95511.34
2019-03-09T03:28:59.441Z,95513.48
2019-03-09T03:31:27.357Z,95517.55
2019-03-09T03:33:55.270Z,95526.95
2019-03-09T03:36:23.136Z,95509.55
2019-03-09T03:38:51.039Z,95503.33
2019-03-09T03:41:19.830Z,95492.09
2019-03-09T03:43:47.728Z,95500.86
2019-03-09T03:46:15.638Z,95494.99
2019-03-09T03:48:43.567Z,95501.05
2019-03-09T03:51:12.383Z,95496.81
2019-03-09T03:53:40.280Z,95493.00
2019-03-09T03:56:08.168Z,95503.23
2019-03-09T03:58:36.152Z,95494.90
2019-03-09T04:01:04.063Z,95501.59
2019-03-09T04:03:31.957Z,95502.31
2019-03-09T04:05:59.859Z,95483.43
2019-03-09T04:08:27.760Z,95495.23
2019-03-09T04:10:55.662Z,95494.94
2019-03-09T04:13:23.577Z,95496.50
2019-03-09T04:15:52.484Z,95487.83
2019-03-09T04:18:20.375Z,95485.12
2019-03-09T04:20:48.271Z,95473.65
2019-03-09T04:23:16.169Z,95482.69
2019-03-09T04:25:44.073Z,95485.25
2019-03-09T04:28:11.975Z,95487.77
2019-03-09T04:30:39.884Z,95477.89
2019-03-09T04:33:07.785Z,95473.81
2019-03-09T04:35:38.721Z,95494.06
2019-03-09T04:38:06.611Z,95479.19
2019-03-09T04:40:34.511Z,95492.73
2019-03-09T04:43:03.313Z,95470.53
2019-03-09T04:45:31.217Z,95469.03
2019-03-09T04:47:59.131Z,95472.24
2019-03-09T04:50:27.022Z,95466.87
2019-03-09T04:52:54.927Z,95478.56
2019-03-09T04:55:22.815Z,95477.85
2019-03-09T04:57:51.738Z,95475.22
2019-03-09T05:00:19.704Z,95477.47
2019-03-09T05:02:47.566Z,95477.72
2019-03-09T05:05:15.470Z,95475.98
2019-03-09T05:07:44.259Z,95477.28
2019-03-09T05:10:22.596Z,95495.39
2019-03-09T05:12:50.520Z,95469.34
2019-03-09T05:15:18.424Z,95464.92
2019-03-09T05:17:46.334Z,95467.28
2019-03-09T05:20:14.237Z,95464.27
2019-03-09T05:22:42.162Z,95455.22
2019-03-09T05:25:11.110Z,95454.59
2019-03-09T05:27:39.991Z,95449.29
2019-03-09T05:30:08.805Z,95440.47
2019-03-09T05:32:37.679Z,95439.25
2019-03-09T05:35:05.592Z,95437.06
2019-03-09T05:37:42.668Z,95432.24
2019-03-09T05:40:01.395Z,95439.78
2019-03-09T05:42:29.301Z,95444.49
2019-03-09T05:44:57.222Z,95435.14
2019-03-09T05:47:25.115Z,95435.00
2019-03-09T05:49:54.130Z,95433.67
2019-03-09T05:52:29.095Z,95431.20
2019-03-09T05:54:57.332Z,95431.73
2019-03-09T05:57:25.220Z,95432.84
2019-03-09T05:59:53.176Z,95428.02
2019-03-09T06:02:21.063Z,95433.64
2019-03-09T06:04:49.952Z,95421.96
2019-03-09T06:07:17.850Z,95408.83
2019-03-09T06:09:45.772Z,95407.75
2019-03-09T06:12:13.650Z,95410.83
2019-03-09T06:14:42.553Z,95404.85
2019-03-09T06:17:10.436Z,95403.27
2019-03-09T06:19:38.353Z,95394.38
2019-03-09T06:22:06.251Z,95381.95
2019-03-09T06:24:36.081Z,95391.20
2019-03-09T06:27:03.990Z,95399.38
2019-03-09T06:29:31.886Z,95394.99
2019-03-09T06:32:11.622Z,95404.09
2019-03-09T06:34:39.523Z,95415.68
2019-03-09T06:37:07.421Z,95410.48
2019-03-09T06:39:35.371Z,95417.45
2019-03-09T06:42:13.983Z,95413.99
2019-03-09T06:44:41.888Z,95399.94
2019-03-09T06:47:09.772Z,95412.17
2019-03-09T06:49:37.663Z,95427.60
2019-03-09T06:52:05.554Z,95430.70
2019-03-09T06:54:33.461Z,95417.66
2019-03-09T06:57:01.355Z,95447.72
2019-03-09T06:59:29.250Z,95464.63
2019-03-09T07:01:58.096Z,95481.58
2019-03-09T07:04:25.983Z,95471.48
2019-03-09T07:06:53.895Z,95478.84
2019-03-09T07:09:21.787Z,95505.78
2019-03-09T07:11:49.683Z,95487.49
2019-03-09T07:14:29.372Z,95508.06
2019-03-09T07:16:57.344Z,95505.78
2019-03-09T07:19:25.218Z,95507.39
2019-03-09T07:21:53.100Z,95513.80
2019-03-09T07:24:20.985Z,95517.72
2019-03-09T07:26:49.218Z,95522.20
2019-03-09T07:29:17.124Z,95522.55
2019-03-09T07:31:45.036Z,95525.28
2019-03-09T07:34:16.361Z,95539.28
2019-03-09T07:36:44.269Z,95515.10
2019-03-09T07:39:12.156Z,95501.20
2019-03-09T07:41:40.215Z,95469.42
2019-03-09T07:44:08.099Z,95520.11
2019-03-09T07:46:35.999Z,95513.80
2019-03-09T07:49:03.879Z,95551.22
2019-03-09T07:51:31.785Z,95533.73
2019-03-09T07:54:00.680Z,95550.92
2019-03-09T07:56:28.594Z,95546.60
2019-03-09T07:58:56.499Z,95530.72
2019-03-09T08:01:24.398Z,95536.67
2019-03-09T08:03:52.302Z,95542.85
2019-03-09T08:06:20.206Z,95535.31
2019-03-09T08:08:49.138Z,95515.85
2019-03-09T08:11:20.231Z,95533.69
2019-03-09T08:13:48.127Z,95531.08
2019-03-09T08:16:16.993Z,95537.97
2019-03-09T08:18:45.366Z,95583.52
2019-03-09T08:21:12.767Z,95542.91
2019-03-09T08:23:40.659Z,95544.73
2019-03-09T08:26:09.490Z,95573.40
2019-03-09T08:28:37.381Z,95572.81
2019-03-09T08:31:05.289Z,95581.20
2019-03-09T08:33:33.339Z,95596.40
2019-03-09T08:36:01.259Z,95582.13
2019-03-09T08:38:29.144Z,95584.20
2019-03-09T08:40:57.332Z,95585.87
2019-03-09T08:43:25.709Z,95595.22
2019-03-09T08:45:53.689Z,95590.34
2019-03-09T08:48:21.590Z,95584.66
2019-03-09T08:50:49.468Z,95593.11
2019-03-09T08:53:17.366Z,95608.83
2019-03-09T08:55:47.245Z,95580.77
2019-03-09T08:58:15.169Z,95595.87
2019-03-09T09:00:43.048Z,95576.31
2019-03-09T09:03:10.955Z,95576.28
2019-03-09T09:05:39.705Z,95577.95
2019-03-09T09:08:06.753Z,95578.20
2019-03-09T09:10:34.648Z,95558.97
2019-03-09T09:13:02.587Z,95559.30
2019-03-09T09:15:30.492Z,95526.60
2019-03-09T09:17:58.405Z,95552.09
2019-03-09T09:20:26.996Z,95530.62
2019-03-09T09:22:54.889Z,95534.67
2019-03-09T09:25:22.775Z,95524.63
2019-03-09T09:27:52.062Z,95550.72
2019-03-09T09:30:21.380Z,95540.55
2019-03-09T09:32:49.336Z,95530.67
2019-03-09T09:35:17.344Z,95536.42
2019-03-09T09:37:45.343Z,95548.63
2019-03-09T09:40:17.136Z,95585.33
2019-03-09T09:42:45.028Z,95603.19
2019-03-09T09:45:13.008Z,95614.38
2019-03-09T09:47:42.525Z,95572.89
2019-03-09T09:50:10.166Z,95575.41
2019-03-09T09:52:38.263Z,95552.38
2019-03-09T09:55:06.152Z,95573.47
2019-03-09T09:57:34.056Z,95557.07
2019-03-09T10:00:01.957Z,95569.70
2019-03-09T10:02:29.868Z,95523.61
2019-03-09T10:04:57.755Z,95543.81
2019-03-09T10:07:25.680Z,95536.39
2019-03-09T10:09:53.632Z,95553.62
2019-03-09T10:12:21.538Z,95544.96
2019-03-09T10:14:49.744Z,95542.08
2019-03-09T10:17:18.563Z,95553.48
2019-03-09T10:19:46.467Z,95578.83
2019-03-09T10:22:14.403Z,95579.90
2019-03-09T10:24:43.388Z,95567.08
2019-03-09T10:27:11.268Z,95590.97
2019-03-09T10:29:39.189Z,95598.89
2019-03-09T10:32:08.105Z,95589.73
2019-03-09T10:34:35.999Z,95593.03
2019-03-09T10:37:03.893Z,95609.56
2019-03-09T10:39:31.789Z,95582.91
2019-03-09T10:41:59.694Z,95600.63
2019-03-09T10:44:29.530Z,95591.58
2019-03-09T10:46:57.415Z,95617.64
2019-03-09T10:49:27.252Z,95594.58
2019-03-09T10:51:56.088Z,95588.20
2019-03-09T10:54:23.979Z,95614.44
2019-03-09T10:56:51.867Z,95574.20
2019-03-09T10:59:19.759Z,95601.33
2019-03-09T11:01:47.660Z,95576.85
2019-03-09T11:04:15.555Z,95575.05
2019-03-09T11:06:43.454Z,95583.31
2019-03-09T11:09:11.355Z,95572.16
2019-03-09T11:11:39.262Z,95570.41
2019-03-09T11:14:07.192Z,95567.23
2019-03-09T11:16:35.130Z,95576.70
2019-03-09T11:19:03.045Z,95562.30
2019-03-09T11:21:30.939Z,95564.50
2019-03-09T11:23:58.847Z,95569.83
2019-03-09T11:26:26.736Z,95564.09
2019-03-09T11:28:54.705Z,95568.69
2019-03-09T11:31:22.530Z,95567.80
2019-03-09T11:33:50.438Z,95566.41
2019-03-09T11:36:18.330Z,95547.10
2019-03-09T11:38:46.255Z,95546.30
2019-03-09T11:41:19.023Z,95543.16
2019-03-09T11:43:42.099Z,95542.66
2019-03-09T11:46:10.970Z,95534.45
2019-03-09T11:48:38.859Z,95553.59
2019-03-09T11:51:07.704Z,95527.42
2019-03-09T11:53:35.567Z,95541.92
2019-03-09T11:56:03.475Z,95516.50
2019-03-09T11:58:31.381Z,95516.33
2019-03-09T12:00:59.276Z,95527.21
2019-03-09T12:03:27.203Z,95520.00
2019-03-09T12:05:56.127Z,95510.02
2019-03-09T12:08:24.082Z,95521.02
2019-03-09T12:10:51.991Z,95502.55
2019-03-09T12:13:19.876Z,95495.59
2019-03-09T12:15:47.834Z,95504.06
2019-03-09T12:18:15.730Z,95490.66
2019-03-09T12:20:43.687Z,95482.03
2019-03-09T12:23:14.488Z,95468.00
2019-03-09T12:25:43.329Z,95462.23
2019-03-09T12:28:11.228Z,95460.08
2019-03-09T12:30:39.155Z,95459.41
2019-03-09T12:33:07.039Z,95447.86
2019-03-09T12:35:34.977Z,95451.79
2019-03-09T12:38:02.946Z,95439.43
2019-03-09T12:40:30.826Z,95442.57
2019-03-09T12:42:58.895Z,95445.88
2019-03-09T12:45:26.821Z,95435.17
2019-03-09T12:47:54.729Z,95431.64
2019-03-09T12:50:22.686Z,95427.17
2019-03-09T12:52:51.554Z,95413.33
2019-03-09T12:55:19.452Z,95399.49
2019-03-09T12:57:47.339Z,95408.51
2019-03-09T13:00:17.945Z,95400.61
2019-03-09T13:02:45.894Z,95401.06
2019-03-09T13:05:13.764Z,95400.25
2019-03-09T13:07:41.710Z,95393.11
2019-03-09T13:10:09.616Z,95395.92
2019-03-09T13:12:37.642Z,95420.96
2019-03-09T13:15:05.554Z,95382.78
2019-03-09T13:17:33.514Z,95402.36
2019-03-09T13:20:01.590Z,95396.95
2019-03-09T13:22:29.501Z,95415.47
2019-03-09T13:24:57.399Z,95400.67
2019-03-09T13:27:25.316Z,95413.16
2019-03-09T13:29:54.257Z,95435.03
2019-03-09T13:32:22.168Z,95413.98
2019-03-09T13:34:50.221Z,95404.00
2019-03-09T13:37:18.164Z,95431.46
2019-03-09T13:39:46.339Z,95440.53
2019-03-09T13:42:15.234Z,95425.06
2019-03-09T13:44:44.062Z,95434.44
2019-03-09T13:47:11.984Z,95451.53
2019-03-09T13:49:40.784Z,95424.80
2019-03-09T13:52:08.704Z,95446.97
2019-03-09T13:54:37.599Z,95439.95
2019-03-09T13:57:06.451Z,95439.81
2019-03-09T13:59:34.351Z,95459.11
2019-03-09T14:02:02.258Z,95437.94
2019-03-09T14:04:36.332Z,95443.80
2019-03-09T14:07:04.246Z,95446.41
2019-03-09T14:09:32.168Z,95440.52
2019-03-09T14:12:00.176Z,95441.08
2019-03-09T14:14:28.079Z,95439.30
2019-03-09T14:16:56.019Z,95435.17
2019-03-09T14:19:23.925Z,95425.89
2019-03-09T14:21:51.957Z,95432.44
2019-03-09T14:24:19.867Z,95430.66
2019-03-09T14:26:47.788Z,95428.95
2019-03-09T14:29:15.690Z,95426.58
2019-03-09T14:31:43.608Z,95421.34
2019-03-09T14:34:11.515Z,95414.69
2019-03-09T14:36:41.359Z,95425.09
2019-03-09T14:39:09.273Z,95417.41
2019-03-09T14:41:37.177Z,95415.19
2019-03-09T14:44:05.099Z,95419.09
2019-03-09T14:46:33.014Z,95414.13
2019-03-09T14:49:00.915Z,95407.02
2019-03-09T14:51:28.819Z,95404.02
2019-03-09T14:53:56.739Z,95408.03
2019-03-09T14:56:24.635Z,95397.78
2019-03-09T14:58:52.532Z,95373.55
2019-03-09T15:01:20.428Z,95369.00
2019-03-09T15:03:49.307Z,95361.52
2019-03-09T15:06:17.373Z,95361.63
2019-03-09T15:08:45.314Z,95349.15
2019-03-09T15:11:13.203Z,95349.72
2019-03-09T15:13:43.015Z,95327.38
2019-03-09T15:16:10.936Z,95331.77
2019-03-09T15:18:38.838Z,95339.50
2019-03-09T15:21:06.781Z,95311.38
2019-03-09T15:23:34.743Z,95331.48
2019-03-09T15:26:03.652Z,95329.03
2019-03-09T15:28:31.577Z,95324.92
2019-03-09T15:30:59.499Z,95336.55
2019-03-09T15:33:27.403Z,95329.63
2019-03-09T15:35:55.300Z,95342.33
2019-03-09T15:38:24.137Z,95339.80
2019-03-09T15:40:53.034Z,95340.58
2019-03-09T15:43:20.967Z,95342.88
2019-03-09T15:45:48.987Z,95338.03
2019-03-09T15:48:16.869Z,95362.30
2019-03-09T15:50:44.808Z,95355.86
2019-03-09T15:53:13.603Z,95364.98
2019-03-09T15:55:43.442Z,95353.23
2019-03-09T15:58:11.371Z,95360.97
2019-03-09T16:00:39.296Z,95318.08
2019-03-09T16:03:07.175Z,95311.14
2019-03-09T16:05:35.076Z,95311.57
2019-03-09T16:08:02.958Z,95307.39
2019-03-09T16:10:30.847Z,95324.89
2019-03-09T16:13:02.059Z,95320.07
2019-03-09T16:15:29.967Z,95296.72
2019-03-09T16:17:57.975Z,95312.12
2019-03-09T16:20:26.588Z,95300.77
2019-03-09T16:22:56.486Z,95325.98
2019-03-09T16:25:24.366Z,95322.05
2019-03-09T16:27:52.274Z,95313.91
2019-03-09T16:30:21.932Z,95315.76
2019-03-09T16:32:49.973Z,95310.16
2019-03-09T16:35:17.868Z,95325.23
2019-03-09T16:37:45.821Z,95322.55
2019-03-09T16:40:24.610Z,95318.45
2019-03-09T16:42:52.538Z,95344.66
2019-03-09T16:45:20.413Z,95315.48
2019-03-09T16:47:48.300Z,95350.13
2019-03-09T16:50:16.189Z,95326.57
2019-03-09T16:52:44.134Z,95318.47
2019-03-09T16:55:12.065Z,95316.27
2019-03-09T16:57:40.941Z,95344.97
2019-03-09T17:00:09.733Z,95329.47
2019-03-09T17:02:37.634Z,95328.13
2019-03-09T17:05:05.581Z,95327.43
2019-03-09T17:07:33.459Z,95321.70
2019-03-09T17:10:01.349Z,95335.15
2019-03-09T17:12:29.276Z,95359.96
2019-03-09T17:14:58.190Z,95334.27
2019-03-09T17:17:26.078Z,95334.80
2019-03-09T17:19:54.034Z,95335.83
2019-03-09T17:22:21.989Z,95368.86
2019-03-09T17:24:49.898Z,95359.41
2019-03-09T17:27:17.826Z,95353.39
2019-03-09T17:29:45.759Z,95347.34
2019-03-09T17:32:13.651Z,95382.43
2019-03-09T17:34:41.629Z,95376.98
2019-03-09T17:37:09.539Z,95348.97
2019-03-09T17:39:37.440Z,95355.02
2019-03-09T17:42:05.366Z,95358.36
2019-03-09T17:44:33.304Z,95385.30
2019-03-09T17:47:01.255Z,95386.50
2019-03-09T17:49:29.207Z,95378.57
2019-03-09T17:51:57.165Z,95363.97
2019-03-09T17:54:25.051Z,95384.33
2019-03-09T17:56:52.984Z,95393.67
2019-03-09T17:59:20.874Z,95374.05
2019-03-09T18:01:48.804Z,95377.58
2019-03-09T18:04:16.741Z,95372.09
2019-03-09T18:06:44.702Z,95383.54
2019-03-09T18:09:12.676Z,95391.16
2019-03-09T18:11:40.678Z,95382.20
2019-03-09T18:14:08.630Z,95405.27
2019-03-09T18:16:36.526Z,95425.28
2019-03-09T18:19:04.442Z,95395.86
2019-03-09T18:21:32.447Z,95427.29
2019-03-09T18:24:00.347Z,95394.83
2019-03-09T18:26:28.256Z,95410.11
2019-03-09T18:28:56.193Z,95381.63
2019-03-09T18:31:24.096Z,95380.88
2019-03-09T18:33:52.030Z,95411.91
2019-03-09T18:36:20.879Z,95396.34
2019-03-09T18:38:48.791Z,95384.91
2019-03-09T18:41:16.680Z,95356.84
2019-03-09T18:43:45.551Z,95363.81
2019-03-09T18:46:14.234Z,95388.64
2019-03-09T18:48:42.157Z,95363.67
2019-03-09T18:51:10.212Z,95349.52
2019-03-09T18:53:38.094Z,95365.89
2019-03-09T18:56:06.026Z,95369.33
2019-03-09T18:58:33.966Z,95410.70
2019-03-09T19:01:01.851Z,95360.28
2019-03-09T19:03:30.913Z,95373.77
2019-03-09T19:05:59.774Z,95375.28
2019-03-09T19:08:27.686Z,95405.08
2019-03-09T19:10:55.576Z,95406.35
2019-03-09T19:13:29.139Z,95428.49
2019-03-09T19:15:57.037Z,95407.17
2019-03-09T19:18:24.953Z,95413.95
2019-03-09T19:20:54.764Z,95411.31
2019-03-09T19:23:22.660Z,95401.38
2019-03-09T19:25:50.552Z,95413.79
2019-03-09T19:28:18.463Z,95421.58
2019-03-09T19:30:48.289Z,95425.00
2019-03-09T19:33:16.237Z,95437.17
2019-03-09T19:35:44.191Z,95437.09
2019-03-09T19:38:12.096Z,95440.88
2019-03-09T19:40:42.010Z,95449.94
2019-03-09T19:43:10.832Z,95425.80
2019-03-09T19:45:38.726Z,95432.20
2019-03-09T19:48:06.624Z,95437.60
2019-03-09T19:50:34.591Z,95414.06
2019-03-09T19:53:02.545Z,95464.98
2019-03-09T19:55:30.456Z,95454.44
2019-03-09T19:57:58.364Z,95454.47
2019-03-09T20:00:26.373Z,95444.42
2019-03-09T20:02:55.208Z,95460.89
2019-03-09T20:05:23.157Z,95473.20
2019-03-09T20:07:53.005Z,95500.56
2019-03-09T20:10:20.903Z,95456.64
2019-03-09T20:12:50.720Z,95482.39
2019-03-09T20:15:18.638Z,95468.52
2019-03-09T20:17:46.587Z,95476.11
2019-03-09T20:20:15.398Z,95472.81
2019-03-09T20:22:43.317Z,95497.89
2019-03-09T20:25:11.251Z,95483.13
2019-03-09T20:27:39.132Z,95491.34
2019-03-09T20:30:11.706Z,95494.95
2019-03-09T20:32:39.614Z,95513.18
2019-03-09T20:35:07.501Z,95510.52
2019-03-09T20:37:35.487Z,95524.49
2019-03-09T20:40:03.364Z,95532.23
2019-03-09T20:42:31.295Z,95517.01
2019-03-09T20:44:59.196Z,95526.94
2019-03-09T20:47:27.092Z,95532.45
2019-03-09T20:49:55.020Z,95542.89
2019-03-09T20:52:22.933Z,95525.88
2019-03-09T20:54:50.823Z,95527.63
2019-03-09T20:57:18.739Z,95550.17
2019-03-09T20:59:47.614Z,95536.23
2019-03-09T21:02:15.536Z,95558.41
2019-03-09T21:04:43.431Z,95536.72
2019-03-09T21:07:11.362Z,95533.30
2019-03-09T21:09:42.795Z,95574.91
2019-03-09T21:12:10.698Z,95555.84
2019-03-09T21:14:38.633Z,95555.84
2019-03-09T21:17:07.449Z,95544.31
2019-03-09T21:19:36.249Z,95558.20
2019-03-09T21:22:05.136Z,95572.37
2019-03-09T21:24:33.029Z,95550.82
2019-03-09T21:27:00.935Z,95532.55
2019-03-09T21:29:28.836Z,95572.41
2019-03-09T21:31:56.740Z,95547.06
2019-03-09T21:34:24.662Z,95557.47
2019-03-09T21:36:52.592Z,95579.28
2019-03-09T21:39:20.514Z,95556.21
2019-03-09T21:41:48.412Z,95572.78
2019-03-09T21:44:16.352Z,95578.14
2019-03-09T21:46:44.258Z,95574.28
2019-03-09T21:49:12.165Z,95566.30
2019-03-09T21:51:44.522Z,95579.11
2019-03-09T21:54:12.474Z,95568.08
2019-03-09T21:56:41.272Z,95576.30
2019-03-09T21:59:09.167Z,95584.86
2019-03-09T22:01:37.063Z,95573.19
2019-03-09T22:04:05.026Z,95583.88
2019-03-09T22:06:32.888Z,95583.05
2019-03-09T22:09:00.813Z,95580.95
2019-03-09T22:11:28.753Z,95573.42
2019-03-09T22:13:56.670Z,95584.77
2019-03-09T22:16:24.588Z,95592.12
2019-03-09T22:18:52.510Z,95587.09
2019-03-09T22:21:20.414Z,95593.02
2019-03-09T22:23:49.357Z,95606.69
2019-03-09T22:26:17.239Z,95591.78
2019-03-09T22:28:45.185Z,95602.16
2019-03-09T22:31:13.142Z,95595.37
2019-03-09T22:33:41.085Z,95594.61
2019-03-09T22:36:09.093Z,95593.20
2019-03-09T22:38:37.006Z,95592.92
2019-03-09T22:41:04.925Z,95594.25
2019-03-09T22:43:32.806Z,95603.53
2019-03-09T22:46:00.699Z,95602.11
2019-03-09T22:48:28.643Z,95590.77
2019-03-09T22:50:56.533Z,95584.49
2019-03-09T22:53:24.440Z,95566.96
2019-03-09T22:55:52.352Z,95590.80
2019-03-09T22:58:20.312Z,95580.16
2019-03-09T23:00:48.214Z,95578.76
2019-03-09T23:03:16.114Z,95582.29
2019-03-09T23:05:44.013Z,95578.32
2019-03-09T23:08:11.920Z,95576.25
2019-03-09T23:10:39.813Z,95593.97
2019-03-09T23:13:07.727Z,95565.80
2019-03-09T23:15:36.576Z,95578.99
2019-03-09T23:18:04.521Z,95561.47
2019-03-09T23:20:32.471Z,95575.56
2019-03-09T23:23:00.402Z,95575.97
2019-03-09T23:25:28.291Z,95580.44
2019-03-09T23:27:57.109Z,95586.03
2019-03-09T23:30:25.085Z,95577.33
2019-03-09T23:32:52.987Z,95584.27
2019-03-09T23:35:20.880Z,95577.92
2019-03-09T23:37:48.886Z,95580.70
2019-03-09T23:40:19.534Z,95584.09
2019-03-09T23:42:47.486Z,95592.27
2019-03-09T23:45:17.575Z,95582.39
2019-03-09T23:47:45.463Z,95586.78
2019-03-09T23:50:13.957Z,95571.36
2019-03-09T23:52:41.867Z,95582.28
2019-03-09T23:55:09.763Z,95578.94
2019-03-09T23:57:38.630Z,95568.98
